Time;durP1;ratioP1;P1;durP2;ratioP2;P2;SDS_P1;SDS_P2;PMS_P1;PMS_P2;Temp;Humidity;BMP_temperature;BMP_pressure;BME280_temperature;BME280_humidity;BME280_pressure;Samples;Min_cycle;Max_cycle;Signal;HPM_P1;HPM_P2
2023/06/18 02:30:44;;;;;;;4.73;4.33;;;24.50;90.30;;;;;;4904366;29;20960;-84
2023/06/18 02:33:11;;;;;;;5.23;4.83;;;24.50;90.50;;;;;;4918092;29;20448;-85
2023/06/18 02:35:38;;;;;;;5.10;4.70;;;24.50;90.40;;;;;;4917804;29;20450;-85
2023/06/18 02:38:05;;;;;;;4.83;4.40;;;24.50;90.40;;;;;;4917901;29;20449;-85
2023/06/18 02:40:31;;;;;;;6.10;5.57;;;24.50;90.40;;;;;;4917850;29;20450;-85
2023/06/18 02:42:58;;;;;;;5.27;4.33;;;24.50;90.40;;;;;;4917927;29;20866;-84
2023/06/18 02:45:26;;;;;;;4.80;4.40;;;24.50;90.50;;;;;;4917997;29;20455;-84
2023/06/18 02:47:54;;;;;;;4.40;4.00;;;24.50;90.30;;;;;;4917404;29;20494;-85
2023/06/18 02:50:21;;;;;;;5.63;5.23;;;24.50;90.40;;;;;;4917602;29;20453;-85
2023/06/18 02:52:48;;;;;;;4.57;4.17;;;24.60;90.50;;;;;;4917582;29;20933;-85
2023/06/18 02:55:15;;;;;;;4.97;4.57;;;24.50;90.40;;;;;;4917509;29;20459;-84
2023/06/18 02:57:42;;;;;;;5.43;4.93;;;24.50;90.40;;;;;;4917645;29;20448;-85
2023/06/18 03:00:11;;;;;;;4.80;4.50;;;24.50;90.50;;;;;;4917489;29;20451;-85
2023/06/18 03:02:39;;;;;;;4.87;4.47;;;24.50;90.30;;;;;;4917411;29;20803;-85
2023/06/18 03:05:07;;;;;;;4.60;4.20;;;24.50;90.70;;;;;;4917392;29;20444;-93
2023/06/18 03:07:34;;;;;;;5.40;4.90;;;24.50;90.40;;;;;;4917260;29;20499;-85
2023/06/18 03:10:01;;;;;;;4.97;4.57;;;24.50;90.40;;;;;;4917331;29;20460;-85
2023/06/18 03:12:29;;;;;;;4.73;4.33;;;24.50;90.50;;;;;;4917439;29;20445;-85
2023/06/18 03:14:55;;;;;;;5.37;4.87;;;24.50;90.40;;;;;;4917350;29;20453;-85
2023/06/18 03:17:22;;;;;;;4.67;4.20;;;24.50;90.50;;;;;;4900383;29;20542;-85
2023/06/18 03:19:49;;;;;;;4.80;4.37;;;24.50;90.50;;;;;;4917259;29;20441;-85
2023/06/18 03:22:18;;;;;;;4.50;4.10;;;24.50;90.50;;;;;;4917339;29;20446;-84
2023/06/18 03:24:45;;;;;;;4.93;4.53;;;24.50;90.50;;;;;;4917079;29;20443;-85
2023/06/18 03:27:12;;;;;;;4.47;4.07;;;24.50;90.50;;;;;;4917124;29;20818;-85
2023/06/18 03:29:40;;;;;;;5.40;5.00;;;24.50;90.50;;;;;;4917016;29;20968;-85
2023/06/18 03:32:09;;;;;;;4.53;4.13;;;24.50;90.40;;;;;;4916822;29;20835;-85
2023/06/18 03:34:36;;;;;;;5.67;5.17;;;24.50;90.60;;;;;;4917014;29;20451;-85
2023/06/18 03:37:03;;;;;;;5.20;4.80;;;24.70;90.40;;;;;;4917229;29;20437;-92
2023/06/18 03:39:31;;;;;;;4.40;4.10;;;24.50;90.40;;;;;;4916768;29;20450;-83
2023/06/18 03:41:58;;;;;;;4.77;4.47;;;24.50;90.30;;;;;;4916531;29;20441;-83
2023/06/18 03:44:24;;;;;;;5.10;4.63;;;24.50;90.70;;;;;;4916135;29;20446;-85
2023/06/18 03:46:51;;;;;;;4.93;4.53;;;24.50;90.50;;;;;;4916986;29;20440;-83
2023/06/18 03:49:18;;;;;;;6.63;5.17;;;24.50;90.60;;;;;;4916024;29;20500;-84
2023/06/18 03:51:45;;;;;;;7.07;6.37;;;24.50;90.50;;;;;;4916122;29;20450;-83
2023/06/18 03:54:11;;;;;;;8.33;7.57;;;24.50;90.80;;;;;;4916327;29;20448;-86
2023/06/18 03:56:40;;;;;;;7.57;6.87;;;24.40;91.10;;;;;;4916815;29;20447;-84
2023/06/18 03:59:07;;;;;;;8.87;7.97;;;24.40;91.20;;;;;;4918546;29;20454;-84
2023/06/18 04:01:34;;;;;;;9.13;8.23;;;24.30;91.20;;;;;;4920786;29;20471;-84
2023/06/18 04:04:03;;;;;;;7.80;7.20;;;24.30;91.20;;;;;;4920626;29;20536;-83
2023/06/18 04:06:30;;;;;;;9.53;8.60;;;24.30;91.40;;;;;;4920433;29;20454;-82
2023/06/18 04:08:57;;;;;;;8.00;7.20;;;24.20;91.50;;;;;;4920481;29;20499;-82
2023/06/18 04:11:23;;;;;;;9.47;7.87;;;24.20;91.40;;;;;;4920206;29;20458;-80
2023/06/18 04:13:52;;;;;;;8.67;7.87;;;24.20;91.50;;;;;;4919854;29;20555;-82
2023/06/18 04:16:18;;;;;;;8.70;7.80;;;24.10;91.80;;;;;;4920246;29;20456;-82
2023/06/18 04:18:45;;;;;;;9.57;7.83;;;24.10;91.90;;;;;;4919965;29;20451;-82
2023/06/18 04:21:12;;;;;;;9.50;8.20;;;24.00;92.00;;;;;;4920044;29;20459;-82
2023/06/18 04:23:40;;;;;;;7.83;7.13;;;23.90;92.10;;;;;;4919880;29;20452;-83
2023/06/18 04:26:07;;;;;;;9.17;8.27;;;23.90;92.40;;;;;;4932462;29;20447;-85
2023/06/18 04:28:34;;;;;;;8.33;7.50;;;23.80;92.30;;;;;;4935268;29;20491;-86
2023/06/18 04:31:03;;;;;;;8.43;7.30;;;23.80;92.30;;;;;;4919469;29;20477;-85
2023/06/18 04:33:29;;;;;;;8.27;7.57;;;23.80;92.30;;;;;;4939099;29;20503;-86
2023/06/18 04:35:56;;;;;;;7.73;7.03;;;23.80;92.00;;;;;;4938869;29;20451;-85
2023/06/18 04:38:23;;;;;;;8.93;6.70;;;23.80;92.10;;;;;;4938945;29;20467;-85
2023/06/18 04:40:50;;;;;;;8.10;6.73;;;23.90;91.90;;;;;;4938922;29;20450;-86
2023/06/18 04:43:18;;;;;;;9.33;7.27;;;23.90;91.90;;;;;;4939203;29;20506;-86
2023/06/18 04:45:45;;;;;;;6.90;6.30;;;24.00;91.80;;;;;;4938957;29;20453;-85
2023/06/18 04:48:14;;;;;;;7.23;6.50;;;24.00;91.70;;;;;;4938836;29;20514;-85
2023/06/18 04:50:40;;;;;;;10.67;6.30;;;24.00;91.70;;;;;;4938831;29;20452;-85
2023/06/18 04:53:07;;;;;;;11.90;6.40;;;24.10;91.50;;;;;;4938785;29;20509;-86
2023/06/18 04:55:34;;;;;;;7.10;6.40;;;24.10;91.60;;;;;;4938780;29;20448;-85
2023/06/18 04:58:01;;;;;;;6.93;6.20;;;24.10;91.60;;;;;;4938781;29;20455;-86
2023/06/18 05:00:28;;;;;;;6.83;6.27;;;24.10;91.50;;;;;;4938517;29;20483;-86
2023/06/18 05:02:54;;;;;;;7.23;6.30;;;24.10;91.40;;;;;;4938552;29;20442;-86
2023/06/18 05:05:22;;;;;;;7.83;7.17;;;24.10;91.50;;;;;;4938588;29;20444;-86
2023/06/18 05:07:50;;;;;;;6.37;5.87;;;24.20;91.50;;;;;;4938486;29;20829;-86
2023/06/18 05:10:17;;;;;;;6.67;5.90;;;24.20;91.50;;;;;;4938244;29;20455;-86
2023/06/18 05:12:44;;;;;;;7.07;6.37;;;24.20;91.50;;;;;;4938389;29;20447;-86
2023/06/18 05:15:10;;;;;;;7.10;6.50;;;24.20;91.40;;;;;;4938296;29;20457;-86
2023/06/18 05:17:37;;;;;;;6.93;6.33;;;24.20;91.40;;;;;;4938301;29;20774;-86
2023/06/18 05:20:06;;;;;;;6.20;5.60;;;24.20;91.50;;;;;;4938346;29;20476;-86
2023/06/18 05:22:34;;;;;;;6.97;6.27;;;24.20;91.40;;;;;;4937908;29;20459;-86
2023/06/18 05:25:03;;;;;;;6.80;6.10;;;24.20;91.30;;;;;;4938284;29;20454;-85
2023/06/18 05:27:31;;;;;;;7.40;6.60;;;24.20;91.40;;;;;;4938127;29;20843;-86
2023/06/18 05:29:59;;;;;;;7.27;6.57;;;24.20;91.20;;;;;;4938002;29;20447;-86
2023/06/18 05:32:26;;;;;;;7.93;6.73;;;24.20;91.30;;;;;;4937920;29;20900;-86
2023/06/18 05:34:55;;;;;;;5.73;5.23;;;24.20;91.20;;;;;;4937828;29;20455;-85
2023/06/18 05:37:21;;;;;;;6.67;5.93;;;24.20;91.30;;;;;;4938016;29;20454;-86
2023/06/18 05:39:51;;;;;;;6.13;5.63;;;24.20;91.30;;;;;;4938132;29;20452;-86
2023/06/18 05:42:18;;;;;;;6.50;5.90;;;24.30;91.20;;;;;;4937930;29;20528;-84
2023/06/18 05:44:45;;;;;;;6.50;5.73;;;24.30;91.40;;;;;;4937952;29;20448;-85
2023/06/18 05:47:12;;;;;;;7.00;6.30;;;24.30;91.20;;;;;;4938259;29;20440;-84
2023/06/18 05:49:38;;;;;;;6.77;6.00;;;24.30;91.30;;;;;;4938392;29;21002;-84
2023/06/18 05:52:06;;;;;;;5.57;5.03;;;24.30;91.30;;;;;;4938452;29;20449;-88
2023/06/18 05:54:33;;;;;;;6.80;6.20;;;24.30;91.20;;;;;;4938302;29;20810;-85
2023/06/18 05:57:01;;;;;;;5.50;5.10;;;24.30;91.50;;;;;;4938142;29;20469;-83
2023/06/18 05:59:28;;;;;;;6.50;5.57;;;24.30;91.20;;;;;;4938548;29;20824;-85
2023/06/18 06:01:55;;;;;;;7.27;6.07;;;24.30;91.20;;;;;;4938125;29;20470;-86
2023/06/18 06:04:22;;;;;;;5.90;5.30;;;24.30;91.30;;;;;;4938213;29;20959;-85
2023/06/18 06:06:49;;;;;;;6.43;5.90;;;24.30;91.30;;;;;;4937823;29;20951;-85
2023/06/18 06:09:15;;;;;;;7.00;6.13;;;24.30;91.10;;;;;;4937768;29;20821;-85
2023/06/18 06:11:42;;;;;;;14.83;4.83;;;24.30;91.20;;;;;;4937295;29;20954;-86
2023/06/18 06:14:11;;;;;;;5.93;5.50;;;24.30;91.10;;;;;;4937135;29;20444;-86
2023/06/18 06:16:37;;;;;;;5.87;5.30;;;24.30;91.20;;;;;;4937583;29;20954;-86
2023/06/18 06:19:04;;;;;;;6.33;5.07;;;24.30;91.30;;;;;;4937568;29;20446;-85
2023/06/18 06:21:33;;;;;;;6.30;5.80;;;24.30;91.20;;;;;;4936650;29;20934;-86
2023/06/18 06:24:00;;;;;;;7.10;6.30;;;24.30;91.30;;;;;;4937212;29;20488;-85
2023/06/18 06:26:27;;;;;;;6.47;5.80;;;24.30;91.10;;;;;;4937101;29;20450;-86
2023/06/18 06:28:53;;;;;;;4.97;4.60;;;24.30;91.00;;;;;;4936918;29;21007;-84
2023/06/18 06:31:24;;;;;;;6.53;5.90;;;24.30;91.10;;;;;;4936753;29;20507;-84
2023/06/18 06:33:51;;;;;;;5.53;5.13;;;24.40;91.20;;;;;;4936982;29;20959;-86
2023/06/18 06:36:18;;;;;;;5.70;5.30;;;24.40;91.00;;;;;;4936974;29;20524;-86
2023/06/18 06:38:45;;;;;;;5.37;4.90;;;24.40;91.00;;;;;;4937009;29;20905;-84
2023/06/18 06:41:11;;;;;;;5.20;4.70;;;24.40;91.00;;;;;;4937158;29;20465;-84
2023/06/18 06:43:38;;;;;;;5.43;5.00;;;24.40;91.20;;;;;;4937249;29;20451;-85
2023/06/18 06:46:05;;;;;;;5.97;5.37;;;24.40;90.90;;;;;;4936697;29;20454;-84
2023/06/18 06:48:33;;;;;;;5.37;4.97;;;24.40;91.20;;;;;;4936556;29;20485;-84
2023/06/18 06:51:00;;;;;;;5.60;5.10;;;24.40;91.10;;;;;;4936588;29;20480;-84
2023/06/18 06:53:26;;;;;;;6.40;5.40;;;24.40;91.10;;;;;;4936712;29;20458;-85
2023/06/18 06:55:53;;;;;;;5.50;5.00;;;24.40;91.10;;;;;;4936505;29;20455;-85
2023/06/18 06:58:21;;;;;;;5.47;4.97;;;24.40;91.00;;;;;;4936666;29;20440;-84
2023/06/18 07:00:47;;;;;;;5.17;4.77;;;24.40;91.00;;;;;;4936386;29;20463;-85
2023/06/18 07:03:14;;;;;;;5.47;4.80;;;24.40;90.90;;;;;;4936404;29;20448;-84
2023/06/18 07:05:42;;;;;;;4.73;4.33;;;24.40;91.10;;;;;;4936393;29;20440;-84
2023/06/18 07:08:09;;;;;;;5.13;4.73;;;24.40;91.00;;;;;;4936286;29;20441;-85
2023/06/18 07:10:36;;;;;;;5.30;4.90;;;24.40;91.30;;;;;;4936360;29;20455;-84
2023/06/18 07:13:03;;;;;;;5.50;5.00;;;24.40;91.40;;;;;;4936267;29;20456;-84
2023/06/18 07:15:29;;;;;;;5.27;4.37;;;24.40;91.00;;;;;;4936116;29;20486;-84
2023/06/18 07:17:56;;;;;;;5.53;5.10;;;24.40;91.20;;;;;;4936214;29;20449;-84
2023/06/18 07:20:23;;;;;;;5.90;5.13;;;24.40;91.00;;;;;;4936230;29;20525;-84
2023/06/18 07:22:51;;;;;;;6.30;5.70;;;24.40;91.20;;;;;;4936174;29;20451;-84
2023/06/18 07:25:18;;;;;;;4.80;4.43;;;24.40;91.10;;;;;;4936119;29;20452;-84
2023/06/18 07:27:45;;;;;;;5.70;5.30;;;24.40;91.10;;;;;;4936081;29;20459;-85
2023/06/18 07:30:12;;;;;;;5.30;4.90;;;24.40;91.10;;;;;;4935791;29;20551;-82
2023/06/18 07:32:39;;;;;;;5.80;5.30;;;24.40;91.20;;;;;;4935725;29;20448;-85
2023/06/18 07:35:08;;;;;;;4.97;4.60;;;24.40;91.10;;;;;;4935814;29;20452;-85
2023/06/18 07:37:34;;;;;;;5.10;4.63;;;24.40;91.00;;;;;;4935959;29;20536;-85
2023/06/18 07:40:03;;;;;;;5.60;5.10;;;24.40;91.10;;;;;;4935779;29;20450;-85
2023/06/18 07:42:29;;;;;;;4.90;4.60;;;24.40;91.20;;;;;;4935864;29;20445;-84
2023/06/18 07:44:56;;;;;;;5.23;4.83;;;24.40;91.10;;;;;;4935983;29;20453;-84
2023/06/18 07:47:23;;;;;;;6.40;5.80;;;24.40;91.20;;;;;;4936036;29;20445;-84
2023/06/18 07:49:50;;;;;;;5.63;5.10;;;24.40;91.20;;;;;;4935566;29;20495;-85
2023/06/18 07:52:17;;;;;;;5.43;4.93;;;24.40;91.00;;;;;;4935750;29;20444;-85
2023/06/18 07:54:43;;;;;;;4.93;4.53;;;24.40;91.10;;;;;;4935740;29;20452;-85
2023/06/18 07:57:12;;;;;;;5.10;4.40;;;24.40;91.20;;;;;;4935825;29;20448;-85
2023/06/18 07:59:38;;;;;;;5.80;5.30;;;24.40;91.10;;;;;;4935788;29;20972;-85
2023/06/18 08:02:06;;;;;;;4.77;3.97;;;24.40;91.00;;;;;;4935599;29;20468;-84
2023/06/18 08:04:32;;;;;;;4.80;4.40;;;24.40;91.10;;;;;;4935701;29;20454;-85
2023/06/18 08:06:59;;;;;;;4.27;3.80;;;24.40;91.00;;;;;;4935570;29;20957;-85
2023/06/18 08:09:26;;;;;;;4.60;4.20;;;24.40;91.10;;;;;;4935464;29;20491;-85
2023/06/18 08:11:53;;;;;;;5.10;4.73;;;24.50;91.00;;;;;;4935637;29;20486;-85
2023/06/18 08:14:21;;;;;;;4.90;4.50;;;24.40;91.00;;;;;;4935452;29;20440;-85
2023/06/18 08:16:47;;;;;;;4.83;4.43;;;24.40;91.40;;;;;;4935552;29;20451;-85
2023/06/18 08:19:14;;;;;;;5.23;4.83;;;24.40;91.10;;;;;;4935536;29;20447;-85
2023/06/18 08:21:41;;;;;;;4.43;4.03;;;24.40;91.10;;;;;;4935616;29;20443;-84
2023/06/18 08:24:08;;;;;;;5.07;4.67;;;24.50;91.20;;;;;;4935520;29;20456;-84
2023/06/18 08:26:35;;;;;;;5.00;4.60;;;24.40;91.10;;;;;;4935547;29;20451;-85
2023/06/18 08:29:01;;;;;;;4.50;4.20;;;24.50;91.10;;;;;;4935467;29;20504;-85
2023/06/18 08:31:30;;;;;;;5.17;4.80;;;24.60;91.10;;;;;;4935413;29;20492;-85
2023/06/18 08:33:56;;;;;;;4.97;4.57;;;24.50;91.10;;;;;;4935516;29;20455;-85
2023/06/18 08:36:23;;;;;;;5.03;4.63;;;24.50;91.20;;;;;;4935371;29;20443;-85
2023/06/18 08:38:50;;;;;;;3.87;3.57;;;24.60;91.20;;;;;;4935552;29;20448;-86
2023/06/18 08:41:17;;;;;;;5.07;4.67;;;24.50;91.10;;;;;;4935317;29;20441;-85
2023/06/18 08:43:45;;;;;;;5.83;4.50;;;24.50;91.00;;;;;;4935442;29;20444;-85
2023/06/18 08:46:15;;;;;;;4.10;3.80;;;24.50;91.10;;;;;;4938552;29;20531;-84
2023/06/18 08:48:45;;;;;;;4.97;4.50;;;24.40;91.00;;;;;;4938821;29;20443;-85
2023/06/18 08:51:13;;;;;;;4.90;4.40;;;24.50;91.00;;;;;;4938831;29;20499;-85
2023/06/18 08:53:45;;;;;;;4.40;4.10;;;24.50;91.00;;;;;;4938813;29;20449;-85
2023/06/18 08:56:15;;;;;;;4.57;4.17;;;24.50;90.90;;;;;;4938864;29;20439;-85
2023/06/18 08:58:46;;;;;;;4.57;4.20;;;24.50;91.10;;;;;;4938829;29;20441;-85
2023/06/18 09:01:14;;;;;;;4.83;4.43;;;24.50;91.00;;;;;;4938593;29;20813;-85
2023/06/18 09:03:43;;;;;;;4.00;3.70;;;24.50;90.90;;;;;;4938731;29;20475;-85
2023/06/18 09:06:12;;;;;;;4.80;4.40;;;24.50;91.00;;;;;;4938547;29;20812;-85
2023/06/18 09:08:39;;;;;;;3.83;3.50;;;24.50;90.90;;;;;;4938773;29;20448;-85
2023/06/18 09:11:06;;;;;;;4.23;3.93;;;24.50;91.00;;;;;;4938395;29;20944;-85
2023/06/18 09:13:34;;;;;;;4.30;3.90;;;24.50;91.00;;;;;;4938191;29;20456;-85
2023/06/18 09:16:01;;;;;;;4.03;3.73;;;24.50;91.00;;;;;;4938340;29;20448;-85
2023/06/18 09:18:28;;;;;;;4.10;3.80;;;24.50;91.10;;;;;;4938368;29;20443;-84
2023/06/18 09:20:56;;;;;;;3.90;3.60;;;24.50;91.00;;;;;;4938254;29;20448;-85
2023/06/18 09:23:23;;;;;;;3.93;3.63;;;24.50;91.00;;;;;;4938178;29;20455;-86
2023/06/18 09:25:51;;;;;;;4.30;4.10;;;24.50;90.90;;;;;;4938144;29;20548;-85
2023/06/18 09:28:19;;;;;;;3.37;3.17;;;24.50;91.00;;;;;;4938038;29;20447;-85
2023/06/18 09:30:52;;;;;;;4.70;3.67;;;24.50;91.10;;;;;;4937722;29;20504;-86
2023/06/18 09:33:30;;;;;;;4.33;4.00;;;24.50;91.10;;;;;;4938007;29;20442;-85
2023/06/18 09:36:03;;;;;;;5.77;4.47;;;24.50;91.00;;;;;;4938020;29;20455;-86
2023/06/18 09:38:34;;;;;;;4.27;3.97;;;24.50;91.10;;;;;;4938036;29;20444;-86
2023/06/18 09:41:01;;;;;;;3.53;3.23;;;24.50;90.90;;;;;;4938049;29;20856;-86
2023/06/18 09:43:34;;;;;;;3.60;3.30;;;24.50;91.00;;;;;;4937883;29;20440;-86
2023/06/18 09:46:03;;;;;;;4.13;3.83;;;24.70;91.20;;;;;;4937866;29;20802;-86
2023/06/18 09:48:32;;;;;;;3.60;3.40;;;24.50;90.90;;;;;;4937832;29;20450;-85
2023/06/18 09:50:59;;;;;;;4.00;3.70;;;24.50;91.00;;;;;;4937539;29;20495;-86
2023/06/18 09:53:27;;;;;;;4.30;4.00;;;24.50;91.00;;;;;;4937775;29;20458;-86
2023/06/18 09:55:55;;;;;;;3.30;3.03;;;24.50;91.00;;;;;;4936824;29;20489;-86
2023/06/18 09:58:53;;;;;;;3.77;3.50;;;24.50;90.70;;;;;;4937854;29;20452;-85
2023/06/18 10:01:21;;;;;;;4.20;3.87;;;24.50;90.80;;;;;;4937576;29;20508;-85
2023/06/18 10:03:47;;;;;;;3.90;3.60;;;24.50;90.80;;;;;;4937618;29;20454;-84
2023/06/18 10:06:18;;;;;;;3.73;3.53;;;24.50;91.00;;;;;;4937622;29;20468;-85
2023/06/18 10:08:55;;;;;;;4.10;3.80;;;24.50;90.50;;;;;;4940342;29;20453;-84
2023/06/18 10:11:22;;;;;;;3.80;3.47;;;24.50;90.50;;;;;;4939837;29;20501;-85
2023/06/18 10:13:55;;;;;;;4.10;3.80;;;24.50;90.30;;;;;;4938221;29;20465;-85
2023/06/18 10:16:24;;;;;;;3.90;3.50;;;24.50;90.10;;;;;;4944591;28;20456;-85
2023/06/18 10:19:00;;;;;;;4.03;3.73;;;24.50;90.10;;;;;;4937300;29;20463;-85
2023/06/18 10:21:29;;;;;;;3.43;3.20;;;24.50;89.90;;;;;;4937197;29;20459;-85
2023/06/18 10:24:01;;;;;;;3.33;3.13;;;24.50;89.80;;;;;;4937193;29;20472;-86
2023/06/18 10:26:29;;;;;;;3.77;3.47;;;24.50;90.10;;;;;;4937127;29;20459;-86
2023/06/18 10:28:58;;;;;;;3.60;3.30;;;24.50;90.20;;;;;;4937026;29;20441;-85
2023/06/18 10:31:26;;;;;;;4.80;4.40;;;24.50;90.30;;;;;;4936727;29;21091;-85
2023/06/18 10:33:54;;;;;;;3.70;3.40;;;24.50;90.20;;;;;;4936962;29;20442;-86
2023/06/18 10:36:21;;;;;;;3.50;3.23;;;24.50;90.10;;;;;;4936934;29;20448;-85
2023/06/18 10:38:49;;;;;;;3.87;3.57;;;24.50;90.20;;;;;;4936950;29;20543;-85
2023/06/18 10:41:20;;;;;;;4.30;4.00;;;24.50;90.30;;;;;;4936925;29;20785;-85
2023/06/18 10:43:51;;;;;;;3.23;3.03;;;24.50;90.20;;;;;;4936785;29;20437;-84
2023/06/18 10:46:18;;;;;;;4.00;3.33;;;24.50;90.20;;;;;;4936778;29;20455;-86
2023/06/18 10:49:21;;;;;;;3.70;3.40;;;24.50;90.10;;;;;;4936817;29;20529;-86
2023/06/18 10:52:17;;;;;;;3.87;3.37;;;24.50;90.20;;;;;;4928863;29;20463;-86
2023/06/18 10:54:44;;;;;;;3.53;3.33;;;24.60;90.30;;;;;;4934376;29;20554;-86
2023/06/18 10:57:13;;;;;;;3.43;3.23;;;24.50;90.20;;;;;;4936521;29;20456;-85
2023/06/18 10:59:43;;;;;;;4.93;3.57;;;24.50;90.30;;;;;;4936560;29;20465;-85
2023/06/18 11:02:11;;;;;;;3.57;3.30;;;24.50;90.30;;;;;;4936386;29;20464;-85
2023/06/18 11:04:38;;;;;;;3.90;3.60;;;24.50;90.60;;;;;;4936465;29;20484;-85
2023/06/18 11:07:23;;;;;;;3.57;3.37;;;24.60;90.70;;;;;;4936241;29;20440;-85
2023/06/18 11:09:52;;;;;;;3.93;3.63;;;24.60;91.00;;;;;;4936380;29;20487;-85
2023/06/18 11:12:22;;;;;;;3.43;3.20;;;24.60;90.60;;;;;;4919342;29;20446;-85
2023/06/18 11:15:22;;;;;;;3.53;3.30;;;24.60;90.50;;;;;;4936169;29;20497;-87
2023/06/18 11:17:51;;;;;;;3.27;3.07;;;24.60;91.10;;;;;;4936213;29;20941;-85
2023/06/18 11:20:19;;;;;;;3.37;3.17;;;24.60;90.80;;;;;;4936073;29;20461;-85
2023/06/18 11:22:46;;;;;;;3.97;3.67;;;24.60;90.60;;;;;;4936101;29;20479;-84
2023/06/18 11:25:14;;;;;;;3.47;3.27;;;24.60;90.70;;;;;;4936116;29;20458;-85
2023/06/18 11:27:46;;;;;;;4.10;3.80;;;24.60;90.60;;;;;;4936142;29;20555;-84
2023/06/18 11:30:15;;;;;;;3.30;3.10;;;24.60;90.70;;;;;;4935683;29;20499;-84
2023/06/18 11:32:42;;;;;;;4.70;3.20;;;24.60;90.60;;;;;;4936046;29;20475;-84
2023/06/18 11:35:10;;;;;;;3.10;2.90;;;24.60;90.70;;;;;;4935775;29;20457;-85
2023/06/18 11:37:40;;;;;;;3.23;3.03;;;24.60;90.70;;;;;;4936101;29;20447;-85
2023/06/18 11:40:08;;;;;;;3.70;3.40;;;24.60;91.10;;;;;;4935926;29;20439;-85
2023/06/18 11:42:37;;;;;;;3.80;3.50;;;24.60;90.70;;;;;;4936020;29;20448;-86
2023/06/18 11:45:06;;;;;;;3.30;3.10;;;24.60;90.80;;;;;;4935983;29;20445;-86
2023/06/18 11:47:35;;;;;;;3.20;3.00;;;24.60;90.70;;;;;;4935902;29;20810;-85
2023/06/18 11:50:02;;;;;;;3.77;3.47;;;24.60;90.70;;;;;;4935700;29;20844;-85
2023/06/18 11:52:30;;;;;;;3.10;2.90;;;24.60;91.00;;;;;;4935858;29;20448;-85
2023/06/18 11:55:04;;;;;;;3.17;2.97;;;24.60;90.80;;;;;;4935598;29;20450;-86
2023/06/18 11:57:32;;;;;;;3.77;3.47;;;24.60;90.70;;;;;;4935877;29;20801;-86
2023/06/18 11:59:59;;;;;;;3.50;3.20;;;24.60;90.50;;;;;;4935538;29;20475;-85
2023/06/18 12:02:28;;;;;;;3.37;3.13;;;24.60;90.50;;;;;;4935784;29;20453;-86
2023/06/18 12:05:01;;;;;;;4.17;3.77;;;24.60;90.30;;;;;;4935694;29;20441;-86
2023/06/18 12:07:28;;;;;;;3.10;2.90;;;24.60;90.30;;;;;;4935659;29;20446;-86
2023/06/18 12:09:57;;;;;;;3.40;3.20;;;24.60;90.30;;;;;;4935597;29;20444;-85
2023/06/18 12:12:29;;;;;;;3.50;3.20;;;24.60;90.40;;;;;;4935717;29;20455;-85
2023/06/18 12:15:04;;;;;;;3.10;2.90;;;24.60;90.40;;;;;;4935603;29;20452;-85
2023/06/18 12:17:43;;;;;;;3.30;3.10;;;24.60;90.30;;;;;;4935617;29;20548;-86
2023/06/18 12:20:11;;;;;;;3.10;2.90;;;24.60;90.30;;;;;;4937262;29;20464;-86
2023/06/18 12:22:39;;;;;;;3.50;3.20;;;24.60;90.40;;;;;;4939418;29;20783;-86
2023/06/18 12:25:07;;;;;;;3.37;3.17;;;24.60;90.70;;;;;;4939392;29;20450;-86
2023/06/18 12:27:35;;;;;;;3.20;3.00;;;24.60;90.50;;;;;;4922320;29;20862;-86
2023/06/18 12:30:03;;;;;;;3.47;3.23;;;24.60;90.30;;;;;;4938743;29;20569;-85
2023/06/18 12:32:33;;;;;;;3.30;3.10;;;24.60;90.40;;;;;;4939339;29;20814;-85
2023/06/18 12:35:10;;;;;;;3.20;3.00;;;24.60;90.70;;;;;;4939092;29;20466;-86
2023/06/18 12:37:37;;;;;;;3.33;3.03;;;24.70;90.70;;;;;;4939195;29;20448;-86
2023/06/18 12:40:14;;;;;;;3.03;2.83;;;24.60;90.30;;;;;;4939040;29;20445;-86
2023/06/18 12:42:41;;;;;;;3.50;3.30;;;24.60;90.90;;;;;;4938990;29;20841;-86
2023/06/18 12:45:08;;;;;;;3.40;3.20;;;24.60;90.60;;;;;;4939033;29;20448;-85
2023/06/18 12:47:42;;;;;;;3.57;3.37;;;24.60;90.60;;;;;;4939112;29;20447;-86
2023/06/18 12:50:09;;;;;;;3.67;3.47;;;24.70;90.70;;;;;;4938822;29;20835;-85
2023/06/18 12:52:40;;;;;;;2.87;2.67;;;24.60;90.70;;;;;;4938898;29;20966;-85
2023/06/18 12:55:14;;;;;;;3.40;3.10;;;24.70;90.60;;;;;;4938671;29;20449;-86
2023/06/18 12:57:44;;;;;;;3.33;3.13;;;24.70;90.60;;;;;;4938683;29;20458;-85
2023/06/18 13:00:18;;;;;;;3.43;3.20;;;24.60;90.50;;;;;;4938501;29;20833;-86
2023/06/18 13:02:47;;;;;;;3.17;2.97;;;24.70;90.60;;;;;;4938504;29;20450;-86
2023/06/18 13:05:14;;;;;;;2.97;2.77;;;24.60;90.40;;;;;;4938457;29;20455;-86
2023/06/18 13:07:50;;;;;;;3.27;3.07;;;24.70;90.60;;;;;;4938603;29;20937;-86
2023/06/18 13:10:17;;;;;;;3.17;2.97;;;24.70;90.30;;;;;;4938389;29;20484;-85
2023/06/18 13:12:44;;;;;;;3.47;3.17;;;24.70;90.40;;;;;;4938449;29;20447;-85
2023/06/18 13:15:11;;;;;;;2.50;2.30;;;24.70;90.60;;;;;;4938469;29;20450;-85
2023/06/18 13:17:38;;;;;;;3.40;3.10;;;24.70;90.60;;;;;;4938477;29;20441;-85
2023/06/18 13:20:08;;;;;;;2.87;2.67;;;24.70;90.60;;;;;;4938303;29;20526;-85
2023/06/18 13:22:35;;;;;;;3.10;2.90;;;24.70;91.10;;;;;;4938242;29;20527;-85
2023/06/18 13:25:02;;;;;;;2.73;2.53;;;24.70;90.80;;;;;;4938333;29;20440;-85
2023/06/18 13:27:30;;;;;;;3.00;2.80;;;24.70;90.70;;;;;;4938158;29;20444;-85
2023/06/18 13:29:57;;;;;;;2.83;2.63;;;24.70;90.80;;;;;;4938097;29;20480;-85
2023/06/18 13:32:24;;;;;;;3.20;3.00;;;24.70;90.70;;;;;;4937879;29;20592;-86
2023/06/18 13:34:52;;;;;;;3.30;3.10;;;24.60;90.60;;;;;;4938012;29;20480;-85
2023/06/18 13:37:20;;;;;;;3.40;3.10;;;24.70;90.70;;;;;;4938095;29;20443;-85
2023/06/18 13:39:49;;;;;;;3.13;2.93;;;24.70;90.70;;;;;;4937937;29;20462;-86
2023/06/18 13:42:17;;;;;;;3.03;2.83;;;24.70;90.90;;;;;;4937951;29;20467;-85
2023/06/18 13:44:44;;;;;;;3.13;2.93;;;24.70;91.00;;;;;;4937864;29;21005;-85
2023/06/18 13:47:11;;;;;;;3.43;3.13;;;24.70;90.80;;;;;;4937938;29;20447;-85
2023/06/18 13:49:38;;;;;;;2.90;2.70;;;24.70;90.70;;;;;;4937864;29;20446;-85
2023/06/18 13:52:05;;;;;;;3.40;3.20;;;24.70;90.90;;;;;;4937629;29;20491;-85
2023/06/18 13:54:34;;;;;;;3.40;2.70;;;24.70;90.90;;;;;;4937787;29;20460;-85
2023/06/18 13:57:01;;;;;;;3.53;3.33;;;24.70;91.00;;;;;;4937567;29;20445;-85
2023/06/18 13:59:28;;;;;;;3.07;2.87;;;24.70;90.90;;;;;;4937543;29;20444;-86
2023/06/18 14:01:55;;;;;;;3.33;3.07;;;24.70;91.00;;;;;;4937713;29;20476;-85
2023/06/18 14:04:24;;;;;;;3.00;2.80;;;24.70;90.90;;;;;;4937612;29;20446;-85
2023/06/18 14:06:51;;;;;;;3.30;3.00;;;24.70;90.90;;;;;;4937591;29;20870;-86
2023/06/18 14:09:17;;;;;;;3.13;2.93;;;24.70;91.10;;;;;;4937396;29;20536;-86
2023/06/18 14:11:46;;;;;;;2.70;2.50;;;24.70;90.90;;;;;;4937328;29;20500;-85
2023/06/18 14:14:13;;;;;;;3.33;3.13;;;24.70;91.00;;;;;;4937290;29;20454;-85
2023/06/18 14:16:40;;;;;;;3.00;2.47;;;24.70;91.10;;;;;;4937366;29;20453;-85
2023/06/18 14:19:07;;;;;;;3.33;3.13;;;24.70;90.90;;;;;;4937179;29;20553;-85
2023/06/18 14:21:34;;;;;;;3.07;2.87;;;24.70;90.90;;;;;;4937167;29;20442;-85
2023/06/18 14:24:03;;;;;;;3.30;3.10;;;24.70;90.90;;;;;;4937252;29;20538;-85
2023/06/18 14:26:30;;;;;;;3.43;3.23;;;24.70;90.90;;;;;;4937165;29;20452;-86
2023/06/18 14:28:58;;;;;;;3.13;2.93;;;24.70;90.80;;;;;;4937059;29;20457;-86
2023/06/18 14:31:25;;;;;;;3.17;2.97;;;24.70;90.90;;;;;;4936848;29;20509;-85
2023/06/18 14:33:52;;;;;;;3.20;3.00;;;24.70;90.90;;;;;;4936962;29;20448;-86
2023/06/18 14:36:18;;;;;;;2.87;2.63;;;24.70;90.90;;;;;;4936947;29;20495;-85
2023/06/18 14:38:47;;;;;;;3.53;3.33;;;24.70;90.90;;;;;;4936782;29;20949;-85
2023/06/18 14:41:15;;;;;;;3.00;2.80;;;24.70;91.00;;;;;;4936910;29;21001;-85
2023/06/18 14:43:42;;;;;;;2.70;2.50;;;24.70;90.90;;;;;;4936453;29;20945;-85
2023/06/18 14:46:10;;;;;;;3.40;3.10;;;24.70;90.90;;;;;;4936620;29;20471;-85
2023/06/18 14:48:37;;;;;;;3.17;2.97;;;24.70;91.00;;;;;;4936722;29;20444;-86
2023/06/18 14:51:04;;;;;;;3.07;2.87;;;24.70;91.40;;;;;;4936549;29;20504;-85
2023/06/18 14:53:31;;;;;;;3.00;2.80;;;24.70;91.30;;;;;;4936767;29;20457;-86
2023/06/18 14:55:57;;;;;;;3.23;3.03;;;24.70;90.90;;;;;;4936621;29;20496;-86
2023/06/18 14:58:24;;;;;;;3.03;2.83;;;24.70;90.90;;;;;;4936524;29;21003;-86
2023/06/18 15:00:51;;;;;;;2.90;2.70;;;24.70;91.00;;;;;;4936405;29;20544;-86
2023/06/18 15:03:20;;;;;;;2.90;2.70;;;24.70;91.20;;;;;;4936503;29;20443;-85
2023/06/18 15:05:47;;;;;;;2.70;2.50;;;24.70;90.80;;;;;;4936412;29;20439;-85
2023/06/18 15:08:13;;;;;;;3.20;3.00;;;24.70;90.90;;;;;;4936403;29;20447;-85
2023/06/18 15:10:40;;;;;;;3.67;2.80;;;24.70;90.80;;;;;;4936337;29;20445;-85
2023/06/18 15:13:07;;;;;;;3.43;3.23;;;24.70;90.80;;;;;;4936252;29;21013;-85
2023/06/18 15:15:34;;;;;;;2.60;2.40;;;24.70;90.70;;;;;;4936316;29;20529;-85
2023/06/18 15:18:01;;;;;;;3.10;2.90;;;24.70;90.90;;;;;;4936298;29;20547;-85
2023/06/18 15:20:37;;;;;;;2.97;2.77;;;24.70;91.00;;;;;;4936236;29;20859;-85